createdAt,value
2019-04-14T00:01:41.279Z,9.18
2019-04-14T00:04:14.016Z,8.73
2019-04-14T00:06:44.116Z,8.90
2019-04-14T00:09:14.436Z,9.10
2019-04-14T00:11:42.042Z,8.73
2019-04-14T00:14:10.219Z,8.60
2019-04-14T00:16:38.411Z,8.98
2019-04-14T00:19:06.576Z,9.53
2019-04-14T00:21:34.788Z,9.63
2019-04-14T00:24:03.110Z,8.93
2019-04-14T00:26:33.820Z,8.70
2019-04-14T00:29:02.705Z,8.78
2019-04-14T00:31:31.002Z,8.65
2019-04-14T00:34:00.815Z,8.73
2019-04-14T00:36:46.005Z,10.63
2019-04-14T00:39:22.665Z,9.90
2019-04-14T00:42:06.226Z,9.03
2019-04-14T00:44:39.152Z,9.25
2019-04-14T00:47:11.868Z,9.23
2019-04-14T00:49:40.114Z,10.15
2019-04-14T00:52:08.341Z,9.98
2019-04-14T00:54:37.043Z,9.85
2019-04-14T00:57:05.324Z,9.10
2019-04-14T00:59:33.452Z,8.50
2019-04-14T01:02:01.702Z,8.40
2019-04-14T01:04:29.810Z,8.40
2019-04-14T01:06:57.942Z,8.40
2019-04-14T01:09:26.166Z,8.10
2019-04-14T01:11:55.297Z,9.28
2019-04-14T01:14:23.517Z,8.08
2019-04-14T01:16:51.824Z,8.25
2019-04-14T01:19:20.023Z,8.78
2019-04-14T01:21:48.423Z,8.30
2019-04-14T01:24:16.532Z,8.80
2019-04-14T01:26:44.672Z,7.97
2019-04-14T01:29:12.789Z,7.97
2019-04-14T01:31:40.986Z,8.23
2019-04-14T01:34:09.094Z,7.87
2019-04-14T01:36:37.232Z,8.03
2019-04-14T01:39:06.928Z,8.28
2019-04-14T01:41:35.357Z,8.18
2019-04-14T01:44:04.651Z,8.00
2019-04-14T01:46:34.361Z,7.90
2019-04-14T01:49:02.922Z,8.60
2019-04-14T01:51:50.619Z,7.65
2019-04-14T01:54:36.423Z,8.08
2019-04-14T01:57:18.467Z,8.03
2019-04-14T01:59:46.727Z,7.72
2019-04-14T02:02:22.733Z,8.05
2019-04-14T02:04:50.972Z,7.85
2019-04-14T02:07:19.154Z,9.13
2019-04-14T02:09:47.332Z,8.38
2019-04-14T02:12:15.516Z,8.13
2019-04-14T02:14:45.067Z,7.70
2019-04-14T02:17:13.292Z,7.50
2019-04-14T02:19:41.681Z,9.05
2019-04-14T02:22:10.110Z,8.68
2019-04-14T02:24:39.484Z,7.95
2019-04-14T02:27:07.785Z,8.08
2019-04-14T02:29:36.267Z,7.85
2019-04-14T02:32:33.769Z,7.72
2019-04-14T02:35:04.500Z,7.72
2019-04-14T02:40:00.999Z,7.95
2019-04-14T02:42:36.842Z,7.37
2019-04-14T02:45:00.067Z,7.65
2019-04-14T02:50:02.710Z,7.55
2019-04-14T02:52:28.409Z,7.87
2019-04-14T02:54:59.909Z,8.13
2019-04-14T02:57:30.382Z,7.92
2019-04-14T02:59:59.028Z,8.00
2019-04-14T03:02:30.217Z,7.55
2019-04-14T03:05:13.259Z,7.33
2019-04-14T03:07:28.185Z,7.40
2019-04-14T03:10:29.873Z,7.80
2019-04-14T03:21:09.234Z,6.97
2019-04-14T03:22:42.266Z,7.30
2019-04-14T03:25:21.152Z,7.45
2019-04-14T03:27:58.633Z,7.67
2019-04-14T03:33:38.215Z,9.40
2019-04-14T03:36:05.016Z,7.75
2019-04-14T03:38:18.320Z,7.50
2019-04-14T03:40:45.847Z,7.45
2019-04-14T03:43:22.688Z,7.62
2019-04-14T03:50:50.204Z,7.17
2019-04-14T03:53:17.508Z,7.60
2019-04-14T03:55:43.239Z,7.17
2019-04-14T03:58:08.214Z,6.90
2019-04-14T04:00:39.978Z,7.10
2019-04-14T04:03:08.476Z,7.33
2019-04-14T04:05:37.341Z,7.50
2019-04-14T04:08:05.642Z,7.33
2019-04-14T04:10:35.705Z,7.10
2019-04-14T04:13:04.130Z,7.10
2019-04-14T04:15:34.293Z,6.45
2019-04-14T04:18:04.820Z,6.92
2019-04-14T04:20:52.724Z,7.05
2019-04-14T04:23:24.999Z,7.20
2019-04-14T04:25:57.393Z,7.15
2019-04-14T04:28:29.884Z,7.17
2019-04-14T04:31:00.202Z,6.65
2019-04-14T04:33:37.222Z,6.95
2019-04-14T04:36:13.935Z,6.33
2019-04-14T04:38:44.284Z,6.62
2019-04-14T04:41:12.595Z,6.72
2019-04-14T04:43:40.900Z,6.53
2019-04-14T04:46:09.190Z,6.65
2019-04-14T04:48:37.478Z,6.10
2019-04-14T04:51:05.655Z,6.95
2019-04-14T04:53:33.779Z,6.72
2019-04-14T04:56:01.901Z,6.45
2019-04-14T04:58:30.505Z,6.20
2019-04-14T05:00:59.596Z,6.25
2019-04-14T05:03:27.961Z,6.83
2019-04-14T05:06:15.321Z,6.70
2019-04-14T05:08:45.545Z,6.60
2019-04-14T05:11:16.464Z,6.90
2019-04-14T05:13:46.812Z,8.85
2019-04-14T05:16:15.203Z,7.40
2019-04-14T05:18:44.120Z,6.92
2019-04-14T05:21:12.738Z,6.35
2019-04-14T05:23:41.248Z,6.65
2019-04-14T05:26:09.369Z,6.85
2019-04-14T05:28:37.546Z,6.47
2019-04-14T05:31:05.688Z,6.12
2019-04-14T05:33:33.907Z,6.50
2019-04-14T05:36:02.169Z,6.60
2019-04-14T05:38:32.224Z,6.55
2019-04-14T05:41:00.425Z,6.17
2019-04-14T05:43:38.645Z,6.50
2019-04-14T05:45:59.093Z,6.45
2019-04-14T05:48:27.617Z,6.50
2019-04-14T05:50:55.820Z,6.50
2019-04-14T05:53:24.124Z,6.12
2019-04-14T05:55:52.592Z,6.10
2019-04-14T05:58:20.772Z,6.15
2019-04-14T06:00:51.379Z,6.25
2019-04-14T06:03:19.103Z,6.50
2019-04-14T06:05:47.357Z,6.55
2019-04-14T06:08:15.523Z,6.50
2019-04-14T06:10:43.636Z,5.90
2019-04-14T06:13:11.990Z,6.10
2019-04-14T06:15:40.324Z,5.67
2019-04-14T06:18:08.523Z,5.80
2019-04-14T06:20:36.633Z,6.05
2019-04-14T06:23:04.790Z,5.62
2019-04-14T06:25:32.960Z,6.28
2019-04-14T06:28:01.078Z,6.22
2019-04-14T06:30:41.436Z,5.95
2019-04-14T06:33:14.359Z,5.80
2019-04-14T06:38:15.911Z,6.08
2019-04-14T06:40:48.376Z,6.65
2019-04-14T06:43:16.514Z,6.35
2019-04-14T06:45:44.621Z,6.12
2019-04-14T06:48:12.746Z,5.90
2019-04-14T06:50:40.864Z,14.25
2019-04-14T06:53:09.059Z,12.73
2019-04-14T06:55:37.200Z,6.92
2019-04-14T06:58:05.458Z,10.82
2019-04-14T07:00:33.640Z,6.92
2019-04-14T07:03:01.768Z,6.70
2019-04-14T07:05:29.884Z,7.00
2019-04-14T07:07:58.136Z,7.83
2019-04-14T07:10:26.246Z,6.90
2019-04-14T07:12:54.458Z,7.58
2019-04-14T07:15:22.559Z,8.13
2019-04-14T07:17:50.711Z,7.30
2019-04-14T07:20:18.835Z,7.20
2019-04-14T07:22:46.987Z,7.90
2019-04-14T07:25:15.078Z,12.68
2019-04-14T07:27:43.209Z,7.53
2019-04-14T07:30:29.732Z,8.05
2019-04-14T07:33:02.731Z,7.17
2019-04-14T07:35:32.498Z,7.30
2019-04-14T07:38:07.933Z,8.15
2019-04-14T07:40:43.427Z,6.97
2019-04-14T07:43:18.782Z,7.90
2019-04-14T07:46:04.783Z,8.45
2019-04-14T07:48:34.558Z,7.83
2019-04-14T07:51:13.405Z,7.20
2019-04-14T07:53:49.022Z,8.20
2019-04-14T07:56:28.057Z,7.72
2019-04-14T07:59:04.002Z,7.22
2019-04-14T08:01:50.314Z,7.62
2019-04-14T08:04:20.118Z,7.87
2019-04-14T08:06:52.964Z,7.90
2019-04-14T08:09:21.105Z,7.80
2019-04-14T08:11:49.343Z,7.53
2019-04-14T08:14:17.482Z,9.08
2019-04-14T08:16:45.595Z,8.43
2019-04-14T08:19:13.811Z,8.75
2019-04-14T08:21:41.907Z,8.93
2019-04-14T08:24:10.038Z,27.67
2019-04-14T08:26:38.147Z,34.75
2019-04-14T08:29:06.316Z,31.00
2019-04-14T08:31:34.444Z,21.68
2019-04-14T08:34:02.551Z,16.25
2019-04-14T08:36:33.230Z,15.28
2019-04-14T08:39:00.714Z,13.58
2019-04-14T08:41:30.489Z,12.45
2019-04-14T08:44:15.359Z,13.70
2019-04-14T08:46:45.135Z,12.18
2019-04-14T08:49:17.911Z,14.33
2019-04-14T08:51:50.814Z,10.55
2019-04-14T08:54:20.572Z,13.05
2019-04-14T08:56:50.352Z,14.78
2019-04-14T08:59:26.254Z,14.60
2019-04-14T09:01:56.044Z,13.88
2019-04-14T09:04:31.536Z,13.95
2019-04-14T09:07:17.777Z,15.40
2019-04-14T09:09:50.326Z,15.83
2019-04-14T09:12:20.107Z,13.88
2019-04-14T09:14:56.763Z,16.73
2019-04-14T09:17:18.088Z,16.55
2019-04-14T09:19:46.181Z,13.32
2019-04-14T09:22:14.314Z,13.15
2019-04-14T09:24:42.467Z,11.93
2019-04-14T09:27:10.590Z,12.37
2019-04-14T09:29:38.901Z,13.98
2019-04-14T09:32:08.815Z,13.65
2019-04-14T09:34:37.026Z,14.70
2019-04-14T09:37:05.162Z,15.25
2019-04-14T09:39:33.304Z,13.90
2019-04-14T09:42:01.756Z,13.30
2019-04-14T09:44:29.898Z,11.90
2019-04-14T09:46:58.027Z,13.38
2019-04-14T09:49:26.147Z,11.80
2019-04-14T09:51:54.269Z,15.60
2019-04-14T09:54:22.472Z,13.45
2019-04-14T09:56:50.614Z,13.72
2019-04-14T09:59:18.732Z,12.15
2019-04-14T10:01:46.930Z,12.13
2019-04-14T10:04:15.075Z,14.45
2019-04-14T10:06:43.257Z,13.13
2019-04-14T10:09:11.628Z,11.12
2019-04-14T10:11:48.418Z,12.03
2019-04-14T10:14:09.817Z,14.33
2019-04-14T10:16:37.985Z,12.00
2019-04-14T10:19:06.146Z,10.65
2019-04-14T10:21:34.335Z,13.28
2019-04-14T10:24:02.482Z,12.20
2019-04-14T10:26:30.661Z,11.73
2019-04-14T10:28:58.859Z,13.70
2019-04-14T10:31:26.973Z,14.10
2019-04-14T10:33:55.116Z,10.95
2019-04-14T10:36:23.247Z,12.18
2019-04-14T10:38:51.373Z,11.20
2019-04-14T10:41:19.511Z,11.68
2019-04-14T10:43:47.624Z,12.05
2019-04-14T10:46:15.776Z,10.15
2019-04-14T10:48:43.933Z,10.60
2019-04-14T10:51:12.114Z,9.65
2019-04-14T10:53:40.295Z,10.05
2019-04-14T10:56:08.415Z,11.05
2019-04-14T10:58:36.555Z,10.38
2019-04-14T11:01:04.802Z,23.77
2019-04-14T11:03:32.922Z,17.55
2019-04-14T11:06:02.719Z,21.73
2019-04-14T11:08:30.911Z,18.73
2019-04-14T11:10:59.066Z,17.55
2019-04-14T11:13:27.188Z,17.05
2019-04-14T11:15:55.335Z,19.48
2019-04-14T11:18:23.475Z,19.40
2019-04-14T11:20:51.706Z,24.43
2019-04-14T11:23:19.878Z,40.75
2019-04-14T11:25:48.003Z,34.20
2019-04-14T11:28:16.127Z,40.65
2019-04-14T11:30:44.421Z,29.65
2019-04-14T11:33:14.173Z,90.32
2019-04-14T11:35:43.951Z,189.55
2019-04-14T11:38:25.726Z,576.63
2019-04-14T11:40:58.566Z,441.20
2019-04-14T11:43:26.709Z,365.15
2019-04-14T11:45:54.926Z,282.57
2019-04-14T11:48:23.063Z,245.42
2019-04-14T11:50:51.409Z,260.98
2019-04-14T11:53:19.756Z,238.20
2019-04-14T11:55:47.904Z,224.07
2019-04-14T11:58:16.026Z,189.10
2019-04-14T12:01:01.348Z,200.05
2019-04-14T12:03:37.164Z,199.93
2019-04-14T12:06:07.093Z,182.05
2019-04-14T12:08:45.439Z,181.72
2019-04-14T12:11:12.587Z,174.68
2019-04-14T12:13:40.790Z,160.15
2019-04-14T12:16:09.012Z,138.45
2019-04-14T12:18:37.171Z,138.62
2019-04-14T12:21:05.390Z,172.43
2019-04-14T12:23:33.531Z,165.73
2019-04-14T12:26:05.721Z,159.57
2019-04-14T12:28:31.789Z,154.03
2019-04-14T12:31:00.022Z,152.05
2019-04-14T12:33:28.214Z,131.50
2019-04-14T12:35:56.358Z,139.80
2019-04-14T12:38:24.556Z,142.72
2019-04-14T12:40:55.932Z,99.13
2019-04-14T12:43:36.576Z,67.15
2019-04-14T12:46:12.190Z,60.12
2019-04-14T12:48:42.012Z,47.43
2019-04-14T12:51:11.756Z,55.20
2019-04-14T12:53:39.902Z,57.80
2019-04-14T12:56:08.238Z,55.43
2019-04-14T12:58:50.323Z,48.55
2019-04-14T13:01:20.080Z,50.40
2019-04-14T13:03:48.283Z,42.95
2019-04-14T13:06:16.414Z,44.88
2019-04-14T13:08:44.628Z,49.67
2019-04-14T13:11:12.741Z,45.00
2019-04-14T13:13:40.951Z,41.33
2019-04-14T13:16:09.251Z,43.55
2019-04-14T13:18:37.379Z,43.85
2019-04-14T13:21:05.486Z,49.08
2019-04-14T13:23:33.631Z,48.05
2019-04-14T13:26:01.808Z,44.33
2019-04-14T13:28:29.995Z,44.45
2019-04-14T13:30:58.128Z,43.68
2019-04-14T13:33:26.339Z,43.02
2019-04-14T13:35:54.524Z,42.60
2019-04-14T13:38:22.636Z,44.70
2019-04-14T13:40:50.803Z,48.05
2019-04-14T13:43:19.092Z,44.63
2019-04-14T13:45:47.406Z,40.23
2019-04-14T13:48:15.551Z,35.15
2019-04-14T13:50:43.782Z,35.95
2019-04-14T13:53:11.977Z,38.65
2019-04-14T13:55:40.094Z,37.40
2019-04-14T13:58:08.224Z,35.68
2019-04-14T14:00:36.375Z,34.75
2019-04-14T14:03:04.570Z,33.50
2019-04-14T14:05:32.711Z,36.42
2019-04-14T14:08:00.820Z,33.38
2019-04-14T14:10:29.772Z,34.65
2019-04-14T14:12:59.535Z,34.50
2019-04-14T14:15:29.330Z,32.13
2019-04-14T14:18:15.634Z,30.97
2019-04-14T14:21:00.884Z,33.58
2019-04-14T14:23:30.722Z,32.45
2019-04-14T14:26:00.524Z,29.87
2019-04-14T14:28:28.712Z,30.68
2019-04-14T14:30:56.863Z,31.68
2019-04-14T14:33:24.978Z,31.90
2019-04-14T14:35:53.206Z,32.78
2019-04-14T14:38:21.613Z,32.38
2019-04-14T14:40:49.928Z,29.07
2019-04-14T14:43:21.013Z,23.67
2019-04-14T14:45:50.841Z,27.10
2019-04-14T14:48:23.452Z,57.93
2019-04-14T14:50:56.116Z,53.42
2019-04-14T14:53:24.383Z,44.55
2019-04-14T14:55:52.535Z,38.50
2019-04-14T14:58:22.235Z,34.15
2019-04-14T15:00:50.437Z,33.33
2019-04-14T15:03:18.654Z,39.48
2019-04-14T15:05:46.776Z,35.55
2019-04-14T15:08:14.982Z,36.33
2019-04-14T15:10:43.127Z,36.48
2019-04-14T15:13:11.335Z,31.55
2019-04-14T15:15:39.458Z,32.98
2019-04-14T15:18:07.676Z,30.32
2019-04-14T15:20:36.160Z,26.42
2019-04-14T15:23:04.416Z,32.05
2019-04-14T15:25:32.530Z,32.98
2019-04-14T15:28:01.085Z,29.15
2019-04-14T15:30:29.299Z,31.77
2019-04-14T15:32:57.432Z,33.18
2019-04-14T15:35:25.645Z,28.02
2019-04-14T15:37:53.783Z,33.55
2019-04-14T15:40:22.112Z,35.25
2019-04-14T15:42:50.254Z,36.03
2019-04-14T15:45:18.448Z,30.35
2019-04-14T15:47:46.621Z,25.77
2019-04-14T15:50:14.829Z,33.18
2019-04-14T15:52:42.959Z,36.88
2019-04-14T15:55:11.538Z,30.48
2019-04-14T15:57:41.395Z,32.98
2019-04-14T16:00:28.364Z,31.65
2019-04-14T16:02:58.157Z,31.55
2019-04-14T16:05:43.132Z,29.92
2019-04-14T16:08:12.973Z,29.18
2019-04-14T16:10:48.544Z,28.90
2019-04-14T16:13:27.406Z,35.70
2019-04-14T16:15:57.236Z,37.13
2019-04-14T16:18:39.028Z,35.48
2019-04-14T16:21:07.137Z,33.67
2019-04-14T16:23:35.288Z,32.28
2019-04-14T16:26:22.927Z,30.35
2019-04-14T16:28:58.839Z,31.90
2019-04-14T16:31:45.115Z,29.80
2019-04-14T16:34:27.220Z,32.13
2019-04-14T16:36:55.931Z,27.67
2019-04-14T16:39:24.128Z,30.00
2019-04-14T16:41:52.244Z,30.10
2019-04-14T16:44:20.408Z,27.93
2019-04-14T16:46:48.546Z,27.27
2019-04-14T16:49:16.779Z,28.73
2019-04-14T16:51:46.898Z,32.88
2019-04-14T16:54:16.814Z,31.12
2019-04-14T16:56:55.438Z,28.52
2019-04-14T16:59:23.571Z,30.57
2019-04-14T17:01:51.820Z,36.38
2019-04-14T17:04:20.030Z,28.95
2019-04-14T17:06:48.159Z,26.65
2019-04-14T17:09:16.340Z,29.50
2019-04-14T17:11:44.481Z,30.08
2019-04-14T17:14:17.057Z,28.42
2019-04-14T17:17:02.203Z,29.95
2019-04-14T17:19:31.989Z,29.27
2019-04-14T17:22:17.106Z,28.90
2019-04-14T17:25:05.535Z,29.98
2019-04-14T17:27:44.003Z,28.02
2019-04-14T17:30:13.931Z,27.13
2019-04-14T17:32:46.981Z,31.75
2019-04-14T17:35:19.350Z,35.70
2019-04-14T17:37:49.169Z,33.33
2019-04-14T17:40:35.256Z,30.12
2019-04-14T17:43:05.064Z,25.60
2019-04-14T17:45:50.651Z,24.65
2019-04-14T17:48:23.684Z,28.85
2019-04-14T17:50:53.475Z,26.35
2019-04-14T17:53:26.251Z,23.47
2019-04-14T17:55:55.995Z,28.27
2019-04-14T17:58:25.764Z,28.60
2019-04-14T18:00:55.627Z,25.25
2019-04-14T18:03:37.235Z,27.58
2019-04-14T18:06:13.022Z,23.95
2019-04-14T18:08:59.008Z,24.32
2019-04-14T18:11:43.742Z,25.55
2019-04-14T18:14:16.056Z,27.40
2019-04-14T18:17:02.022Z,23.05
2019-04-14T18:19:31.758Z,23.38
2019-04-14T18:21:59.889Z,27.50
2019-04-14T18:24:28.002Z,25.72
2019-04-14T18:26:56.140Z,23.07
2019-04-14T18:29:25.947Z,28.87
2019-04-14T18:31:55.807Z,22.30
2019-04-14T18:34:31.392Z,25.60
2019-04-14T18:37:03.954Z,26.93
2019-04-14T18:39:50.105Z,24.87
2019-04-14T18:42:19.908Z,27.02
2019-04-14T18:44:49.698Z,28.15
2019-04-14T18:47:25.758Z,33.70
2019-04-14T18:50:04.597Z,28.45
2019-04-14T18:52:37.113Z,24.27
2019-04-14T18:55:25.747Z,29.00
2019-04-14T18:58:01.143Z,29.48
2019-04-14T19:00:34.280Z,31.40
2019-04-14T19:03:02.594Z,27.10
2019-04-14T19:05:31.220Z,27.70
2019-04-14T19:07:59.444Z,16.67
2019-04-14T19:10:27.865Z,16.75
2019-04-14T19:13:03.626Z,18.25
2019-04-14T19:15:33.437Z,21.07
2019-04-14T19:18:03.445Z,19.15
2019-04-14T19:20:31.793Z,18.60
2019-04-14T19:23:00.215Z,15.53
2019-04-14T19:25:28.464Z,16.67
2019-04-14T19:27:56.571Z,17.48
2019-04-14T19:30:24.894Z,17.37
2019-04-14T19:32:53.085Z,16.57
2019-04-14T19:35:21.322Z,17.48
2019-04-14T19:37:49.455Z,18.07
2019-04-14T19:40:17.647Z,19.98
2019-04-14T19:42:45.955Z,17.07
2019-04-14T19:45:14.165Z,20.43
2019-04-14T19:47:42.277Z,17.60
2019-04-14T19:50:10.583Z,40.50
2019-04-14T19:52:38.778Z,20.45
2019-04-14T19:55:19.563Z,17.90
2019-04-14T19:57:36.833Z,16.23
2019-04-14T20:00:06.329Z,20.77
2019-04-14T20:02:34.440Z,19.45
2019-04-14T20:05:02.671Z,16.97
2019-04-14T20:07:30.845Z,16.57
2019-04-14T20:09:59.064Z,18.23
2019-04-14T20:12:27.316Z,25.35
2019-04-14T20:14:55.444Z,17.32
2019-04-14T20:17:28.057Z,17.70
2019-04-14T20:20:03.525Z,19.17
2019-04-14T20:22:33.305Z,16.02
2019-04-14T20:25:08.960Z,17.52
2019-04-14T20:27:41.519Z,21.27
2019-04-14T20:30:11.375Z,20.23
2019-04-14T20:32:44.223Z,19.32
2019-04-14T20:35:12.521Z,14.35
2019-04-14T20:37:40.891Z,17.65
2019-04-14T20:40:09.300Z,14.05
2019-04-14T20:42:37.478Z,17.98
2019-04-14T20:45:08.306Z,13.03
2019-04-14T20:47:36.684Z,18.35
2019-04-14T20:50:06.310Z,18.20
2019-04-14T20:52:34.735Z,16.20
2019-04-14T20:55:03.485Z,16.40
2019-04-14T20:57:31.633Z,13.25
2019-04-14T20:59:59.901Z,11.48
2019-04-14T21:02:29.822Z,14.10
2019-04-14T21:05:08.741Z,13.18
2019-04-14T21:07:38.528Z,15.35
2019-04-14T21:10:10.861Z,12.15
2019-04-14T21:12:55.526Z,14.23
2019-04-14T21:15:37.357Z,14.40
2019-04-14T21:18:07.217Z,16.62
2019-04-14T21:20:52.461Z,13.80
2019-04-14T21:23:40.586Z,11.93
2019-04-14T21:26:10.333Z,13.50
2019-04-14T21:28:56.683Z,16.12
2019-04-14T21:31:29.304Z,14.07
2019-04-14T21:33:59.116Z,13.30
2019-04-14T21:36:28.883Z,14.80
2019-04-14T21:38:58.767Z,13.22
2019-04-14T21:41:28.527Z,15.80
2019-04-14T21:43:56.671Z,11.80
2019-04-14T21:46:24.813Z,12.65
2019-04-14T21:48:52.914Z,15.60
2019-04-14T21:51:22.694Z,13.00
2019-04-14T21:53:50.822Z,12.28
2019-04-14T21:56:19.063Z,13.50
2019-04-14T21:58:48.813Z,11.30
2019-04-14T22:01:36.735Z,13.68
2019-04-14T22:04:23.318Z,11.22
2019-04-14T22:06:53.153Z,11.25
2019-04-14T22:09:22.952Z,12.45
2019-04-14T22:11:51.251Z,11.35
2019-04-14T22:14:19.562Z,13.78
2019-04-14T22:16:47.692Z,11.08
2019-04-14T22:19:16.045Z,12.20
2019-04-14T22:21:44.189Z,11.35
2019-04-14T22:24:12.359Z,12.07
2019-04-14T22:26:40.564Z,11.50
2019-04-14T22:29:08.818Z,10.88
2019-04-14T22:31:37.191Z,10.90
2019-04-14T22:34:05.276Z,9.97
2019-04-14T22:36:33.398Z,10.82
2019-04-14T22:39:01.584Z,11.08
2019-04-14T22:41:29.830Z,10.93
2019-04-14T22:43:58.038Z,11.55
2019-04-14T22:46:26.162Z,13.03
2019-04-14T22:48:54.267Z,10.65
2019-04-14T22:51:22.402Z,13.85
2019-04-14T22:53:50.550Z,10.23
2019-04-14T22:56:18.743Z,10.45
2019-04-14T22:58:46.852Z,9.70
2019-04-14T23:01:16.741Z,10.72
2019-04-14T23:03:49.282Z,10.80
2019-04-14T23:06:31.354Z,11.20
2019-04-14T23:09:01.123Z,10.00
2019-04-14T23:11:36.543Z,10.15
2019-04-14T23:14:22.894Z,12.13
2019-04-14T23:16:58.736Z,10.55
2019-04-14T23:19:37.533Z,11.53
2019-04-14T23:22:18.111Z,9.78
2019-04-14T23:24:49.064Z,9.98
2019-04-14T23:27:17.365Z,9.88
2019-04-14T23:29:45.542Z,9.73
2019-04-14T23:32:13.732Z,10.32
2019-04-14T23:34:41.831Z,12.05
2019-04-14T23:37:09.970Z,10.48
2019-04-14T23:39:38.075Z,11.48
2019-04-14T23:42:06.404Z,11.20
2019-04-14T23:44:34.587Z,10.75
2019-04-14T23:47:04.328Z,10.00
2019-04-14T23:49:32.578Z,10.60
2019-04-14T23:52:00.759Z,9.75
2019-04-14T23:54:28.881Z,9.95
2019-04-14T23:57:05.245Z,9.38
2019-04-14T23:59:26.860Z,10.05
